Accueil
METAR-TAF:

METAR-TAF

Aéroports :

Aéroport de Graz

Graz, Autriche

latitude: 47-00N, longitude: 015-26E, altitude: 340 m

Observation

Le bulletin a été fait il y a 43 minutes, à 18:20 UTC
Vent 11 kt de nord-est
Température 3°C
Humidité 48%
Pression 1024 hPa
Visibilité 10 km ou plus
Quelques nuages à une hauteur de 5000 ft, Cumulus congestus.
Nuages fragmentés à une hauteur de 7000 ft

METAR: LOWG 311820Z 04011KT 9999 FEW050TCU BKN070 03/M07 Q1024 NOSIG

Heure: 21:03 (19:03 UTC)

Prévision

Le bulletin a été fait il y a 1 heure et 48 minutes, à 17:15 UTC
Prévision valable du 31 à 18 UTC au 01 à 18 UTC
Vent 5 kt de direction variable
Visibilité 10 km ou plus
Nuages épars à une hauteur de 6000 ft

TAF: LOWG 311715Z 3118/0118 VRB05KT 9999 SCT060 TX08/0114Z TNM03/0104Z

Observations et prévisions météorologiques de plus de 4000 aéroports (messages METAR et TAF).

Les stations disponibles sont représentées par des disques jaunes et rouges sur la carte.

Passer la souris dessus pour voir le nom de la station.

Cliquer dessus pour voir les observations et prévisions météorologiques.

Pour changer de carte: cliquez sur les boutons verts avec une croix noire pour zoomer, sur le bouton vert avec un tiret pour effectuer un zoom arrière, ou sur les flèches vertes pour les cartes adjacentes.


METAR-TAF: